sensor_id;sensor_type;location;lat;lon;timestamp;temperature;humidity
70234;DHT22;57622;42.630;23.378;2022-08-11T00:00:06;22.10;62.03
70234;DHT22;57622;42.630;23.378;2022-08-11T00:02:45;22.13;61.38
70234;DHT22;57622;42.630;23.378;2022-08-11T00:05:14;22.10;61.70
70234;DHT22;57622;42.630;23.378;2022-08-11T00:07:53;22.05;61.36
70234;DHT22;57622;42.630;23.378;2022-08-11T00:10:25;22.06;61.59
70234;DHT22;57622;42.630;23.378;2022-08-11T00:12:53;22.05;61.75
70234;DHT22;57622;42.630;23.378;2022-08-11T00:15:21;22.03;61.64
70234;DHT22;57622;42.630;23.378;2022-08-11T00:17:48;21.98;61.82
70234;DHT22;57622;42.630;23.378;2022-08-11T00:20:15;21.94;62.08
70234;DHT22;57622;42.630;23.378;2022-08-11T00:22:43;21.86;62.26
70234;DHT22;57622;42.630;23.378;2022-08-11T00:25:12;21.92;62.18
70234;DHT22;57622;42.630;23.378;2022-08-11T00:27:39;21.88;62.61
70234;DHT22;57622;42.630;23.378;2022-08-11T00:30:07;21.89;62.05
70234;DHT22;57622;42.630;23.378;2022-08-11T00:32:33;21.91;62.01
70234;DHT22;57622;42.630;23.378;2022-08-11T00:35:00;21.78;62.49
70234;DHT22;57622;42.630;23.378;2022-08-11T00:37:26;21.81;62.42
70234;DHT22;57622;42.630;23.378;2022-08-11T00:39:54;21.68;62.97
70234;DHT22;57622;42.630;23.378;2022-08-11T00:48:04;21.71;62.56
70234;DHT22;57622;42.630;23.378;2022-08-11T01:12:42;21.71;62.71
70234;DHT22;57622;42.630;23.378;2022-08-11T01:18:30;21.59;63.08
70234;DHT22;57622;42.630;23.378;2022-08-11T01:50:31;21.53;63.41
70234;DHT22;57622;42.630;23.378;2022-08-11T01:56:31;21.44;63.73
70234;DHT22;57622;42.630;23.378;2022-08-11T01:59:20;21.48;63.22
70234;DHT22;57622;42.630;23.378;2022-08-11T02:02:32;21.48;63.75
70234;DHT22;57622;42.630;23.378;2022-08-11T02:05:22;21.48;63.43
70234;DHT22;57622;42.630;23.378;2022-08-11T02:08:07;21.51;63.97
70234;DHT22;57622;42.630;23.378;2022-08-11T02:11:23;21.48;63.59
70234;DHT22;57622;42.630;23.378;2022-08-11T02:19:21;21.44;63.31
70234;DHT22;57622;42.630;23.378;2022-08-11T02:22:15;21.38;63.55
70234;DHT22;57622;42.630;23.378;2022-08-11T02:25:05;21.31;63.47
70234;DHT22;57622;42.630;23.378;2022-08-11T02:27:40;21.28;63.91
70234;DHT22;57622;42.630;23.378;2022-08-11T02:30:13;21.22;64.35
70234;DHT22;57622;42.630;23.378;2022-08-11T02:35:29;21.33;63.96
70234;DHT22;57622;42.630;23.378;2022-08-11T02:41:23;21.31;64.44
70234;DHT22;57622;42.630;23.378;2022-08-11T02:46:57;21.28;63.87
70234;DHT22;57622;42.630;23.378;2022-08-11T02:49:43;21.24;64.18
70234;DHT22;57622;42.630;23.378;2022-08-11T02:55:17;21.33;64.15
70234;DHT22;57622;42.630;23.378;2022-08-11T02:57:55;21.43;63.53
70234;DHT22;57622;42.630;23.378;2022-08-11T03:00:25;21.31;63.94
70234;DHT22;57622;42.630;23.378;2022-08-11T03:03:28;21.28;64.21
70234;DHT22;57622;42.630;23.378;2022-08-11T03:08:43;21.19;64.43
70234;DHT22;57622;42.630;23.378;2022-08-11T03:11:44;21.26;64.28
70234;DHT22;57622;42.630;23.378;2022-08-11T03:17:31;21.14;64.53
70234;DHT22;57622;42.630;23.378;2022-08-11T03:22:56;21.07;64.63
70234;DHT22;57622;42.630;23.378;2022-08-11T03:25:28;21.13;64.61
70234;DHT22;57622;42.630;23.378;2022-08-11T03:31:06;20.95;65.01
70234;DHT22;57622;42.630;23.378;2022-08-11T03:33:39;21.02;64.81
70234;DHT22;57622;42.630;23.378;2022-08-11T03:41:54;21.02;64.77
70234;DHT22;57622;42.630;23.378;2022-08-11T03:52:32;21.00;64.99
70234;DHT22;57622;42.630;23.378;2022-08-11T03:58:41;21.11;64.69
70234;DHT22;57622;42.630;23.378;2022-08-11T04:00:55;21.10;64.75
70234;DHT22;57622;42.630;23.378;2022-08-11T04:03:57;21.14;64.63
70234;DHT22;57622;42.630;23.378;2022-08-11T04:06:52;21.16;64.64
70234;DHT22;57622;42.630;23.378;2022-08-11T04:09:53;21.13;64.52
70234;DHT22;57622;42.630;23.378;2022-08-11T04:32:52;21.31;64.33
70234;DHT22;57622;42.630;23.378;2022-08-11T04:36:10;21.48;64.32
70234;DHT22;57622;42.630;23.378;2022-08-11T04:51:23;21.71;62.75
70234;DHT22;57622;42.630;23.378;2022-08-11T04:56:35;21.71;62.78
70234;DHT22;57622;42.630;23.378;2022-08-11T05:05:43;22.12;62.41
70234;DHT22;57622;42.630;23.378;2022-08-11T05:16:58;22.26;62.16
70234;DHT22;57622;42.630;23.378;2022-08-11T05:19:47;22.29;62.57
70234;DHT22;57622;42.630;23.378;2022-08-11T05:22:32;22.43;61.60
70234;DHT22;57622;42.630;23.378;2022-08-11T05:25:28;22.36;61.83
70234;DHT22;57622;42.630;23.378;2022-08-11T05:28:18;22.36;61.95
70234;DHT22;57622;42.630;23.378;2022-08-11T05:31:10;22.35;62.31
70234;DHT22;57622;42.630;23.378;2022-08-11T05:33:58;22.37;61.97
70234;DHT22;57622;42.630;23.378;2022-08-11T05:36:47;22.26;62.21
70234;DHT22;57622;42.630;23.378;2022-08-11T05:39:16;22.35;62.60
70234;DHT22;57622;42.630;23.378;2022-08-11T05:42:03;22.57;62.47
70234;DHT22;57622;42.630;23.378;2022-08-11T05:44:48;22.60;61.48
70234;DHT22;57622;42.630;23.378;2022-08-11T05:47:35;22.77;62.08
70234;DHT22;57622;42.630;23.378;2022-08-11T05:50:21;22.84;61.03
70234;DHT22;57622;42.630;23.378;2022-08-11T05:53:09;22.84;60.97
70234;DHT22;57622;42.630;23.378;2022-08-11T05:55:54;23.01;60.75
70234;DHT22;57622;42.630;23.378;2022-08-11T05:58:40;23.31;60.12
70234;DHT22;57622;42.630;23.378;2022-08-11T06:01:07;23.32;59.21
70234;DHT22;57622;42.630;23.378;2022-08-11T06:03:33;23.37;59.03
70234;DHT22;57622;42.630;23.378;2022-08-11T06:06:21;23.38;59.90
70234;DHT22;57622;42.630;23.378;2022-08-11T06:08:48;23.49;58.63
70234;DHT22;57622;42.630;23.378;2022-08-11T06:11:15;23.55;58.06
70234;DHT22;57622;42.630;23.378;2022-08-11T06:13:45;23.60;58.23
70234;DHT22;57622;42.630;23.378;2022-08-11T06:16:12;23.65;57.56
70234;DHT22;57622;42.630;23.378;2022-08-11T06:18:44;23.76;57.60
70234;DHT22;57622;42.630;23.378;2022-08-11T06:21:10;23.86;56.78
70234;DHT22;57622;42.630;23.378;2022-08-11T06:23:37;23.80;56.13
70234;DHT22;57622;42.630;23.378;2022-08-11T06:26:11;23.94;56.24
70234;DHT22;57622;42.630;23.378;2022-08-11T06:28:39;23.99;56.05
70234;DHT22;57622;42.630;23.378;2022-08-11T06:31:12;24.08;55.75
70234;DHT22;57622;42.630;23.378;2022-08-11T06:36:33;24.18;54.46
70234;DHT22;57622;42.630;23.378;2022-08-11T06:41:48;24.27;54.42
70234;DHT22;57622;42.630;23.378;2022-08-11T06:44:21;24.45;54.91
70234;DHT22;57622;42.630;23.378;2022-08-11T06:46:50;24.42;52.93
70234;DHT22;57622;42.630;23.378;2022-08-11T06:49:19;24.51;53.87
70234;DHT22;57622;42.630;23.378;2022-08-11T06:52:06;24.64;54.47
70234;DHT22;57622;42.630;23.378;2022-08-11T06:54:38;24.76;53.67
70234;DHT22;57622;42.630;23.378;2022-08-11T06:57:12;24.92;53.46
70234;DHT22;57622;42.630;23.378;2022-08-11T06:59:57;24.78;53.72
70234;DHT22;57622;42.630;23.378;2022-08-11T07:05:10;24.78;52.67
70234;DHT22;57622;42.630;23.378;2022-08-11T07:13:44;25.17;51.50
70234;DHT22;57622;42.630;23.378;2022-08-11T07:23:12;25.36;50.19
70234;DHT22;57622;42.630;23.378;2022-08-11T07:25:58;25.54;49.63
70234;DHT22;57622;42.630;23.378;2022-08-11T07:28:46;25.82;49.40
70234;DHT22;57622;42.630;23.378;2022-08-11T07:31:45;25.75;49.56
70234;DHT22;57622;42.630;23.378;2022-08-11T07:37:15;26.21;47.57
70234;DHT22;57622;42.630;23.378;2022-08-11T07:39:43;26.06;47.75
70234;DHT22;57622;42.630;23.378;2022-08-11T07:42:11;26.06;47.28
70234;DHT22;57622;42.630;23.378;2022-08-11T07:44:40;25.96;48.16
70234;DHT22;57622;42.630;23.378;2022-08-11T07:47:25;26.28;48.42
70234;DHT22;57622;42.630;23.378;2022-08-11T07:50:10;26.64;47.30
70234;DHT22;57622;42.630;23.378;2022-08-11T07:52:57;26.79;47.07
70234;DHT22;57622;42.630;23.378;2022-08-11T07:55:23;26.77;45.79
70234;DHT22;57622;42.630;23.378;2022-08-11T07:57:49;26.83;47.51
70234;DHT22;57622;42.630;23.378;2022-08-11T08:01:03;26.90;45.81
70234;DHT22;57622;42.630;23.378;2022-08-11T08:03:47;27.15;45.26
70234;DHT22;57622;42.630;23.378;2022-08-11T08:06:32;27.22;44.68
70234;DHT22;57622;42.630;23.378;2022-08-11T08:09:18;27.20;45.58
70234;DHT22;57622;42.630;23.378;2022-08-11T08:12:03;27.31;43.71
70234;DHT22;57622;42.630;23.378;2022-08-11T08:14:50;27.37;43.85
70234;DHT22;57622;42.630;23.378;2022-08-11T08:17:35;27.46;43.49
70234;DHT22;57622;42.630;23.378;2022-08-11T08:20:20;27.58;44.08
70234;DHT22;57622;42.630;23.378;2022-08-11T08:22:51;27.39;44.70
70234;DHT22;57622;42.630;23.378;2022-08-11T08:25:32;27.48;44.17
70234;DHT22;57622;42.630;23.378;2022-08-11T08:28:00;27.59;44.52
70234;DHT22;57622;42.630;23.378;2022-08-11T08:30:27;27.59;43.73
70234;DHT22;57622;42.630;23.378;2022-08-11T08:33:13;27.31;44.26
70234;DHT22;57622;42.630;23.378;2022-08-11T08:35:40;27.30;44.44
70234;DHT22;57622;42.630;23.378;2022-08-11T08:38:06;27.51;44.46
70234;DHT22;57622;42.630;23.378;2022-08-11T08:40:32;27.31;44.05
70234;DHT22;57622;42.630;23.378;2022-08-11T08:43:06;27.55;44.47
70234;DHT22;57622;42.630;23.378;2022-08-11T08:45:36;27.58;42.32
70234;DHT22;57622;42.630;23.378;2022-08-11T08:48:03;27.62;42.82
70234;DHT22;57622;42.630;23.378;2022-08-11T08:50:36;27.65;43.34
70234;DHT22;57622;42.630;23.378;2022-08-11T08:53:24;27.90;43.50
70234;DHT22;57622;42.630;23.378;2022-08-11T08:55:55;28.11;41.70
70234;DHT22;57622;42.630;23.378;2022-08-11T08:58:23;28.34;42.34
70234;DHT22;57622;42.630;23.378;2022-08-11T09:00:51;28.52;42.35
70234;DHT22;57622;42.630;23.378;2022-08-11T09:03:17;28.24;42.47
70234;DHT22;57622;42.630;23.378;2022-08-11T09:05:45;27.99;41.97
70234;DHT22;57622;42.630;23.378;2022-08-11T09:08:11;27.76;42.78
70234;DHT22;57622;42.630;23.378;2022-08-11T09:10:40;27.41;43.32
70234;DHT22;57622;42.630;23.378;2022-08-11T09:13:06;27.16;43.99
70234;DHT22;57622;42.630;23.378;2022-08-11T09:15:33;27.00;44.40
70234;DHT22;57622;42.630;23.378;2022-08-11T09:18:01;27.05;43.74
70234;DHT22;57622;42.630;23.378;2022-08-11T09:20:31;27.21;42.76
70234;DHT22;57622;42.630;23.378;2022-08-11T09:23:07;27.65;42.17
70234;DHT22;57622;42.630;23.378;2022-08-11T09:25:56;27.96;41.95
70234;DHT22;57622;42.630;23.378;2022-08-11T09:28:42;28.22;43.10
70234;DHT22;57622;42.630;23.378;2022-08-11T09:31:09;27.92;42.82
70234;DHT22;57622;42.630;23.378;2022-08-11T09:33:36;27.45;43.79
70234;DHT22;57622;42.630;23.378;2022-08-11T09:36:03;27.34;43.87
70234;DHT22;57622;42.630;23.378;2022-08-11T09:38:50;27.45;42.88
70234;DHT22;57622;42.630;23.378;2022-08-11T09:41:35;27.69;43.30
70234;DHT22;57622;42.630;23.378;2022-08-11T09:44:02;27.55;42.20
70234;DHT22;57622;42.630;23.378;2022-08-11T09:46:46;27.31;42.56
70234;DHT22;57622;42.630;23.378;2022-08-11T09:49:13;27.32;43.44
70234;DHT22;57622;42.630;23.378;2022-08-11T09:51:40;27.76;42.93
70234;DHT22;57622;42.630;23.378;2022-08-11T09:54:06;28.09;43.00
70234;DHT22;57622;42.630;23.378;2022-08-11T09:56:31;28.17;43.67
70234;DHT22;57622;42.630;23.378;2022-08-11T09:59:17;28.04;42.48
70234;DHT22;57622;42.630;23.378;2022-08-11T10:01:46;28.16;41.96
70234;DHT22;57622;42.630;23.378;2022-08-11T10:04:21;28.49;40.63
70234;DHT22;57622;42.630;23.378;2022-08-11T10:06:52;28.76;40.21
70234;DHT22;57622;42.630;23.378;2022-08-11T10:12:15;29.40;39.30
70234;DHT22;57622;42.630;23.378;2022-08-11T10:14:45;29.33;39.80
70234;DHT22;57622;42.630;23.378;2022-08-11T10:17:35;28.75;40.14
70234;DHT22;57622;42.630;23.378;2022-08-11T10:20:01;28.45;40.67
70234;DHT22;57622;42.630;23.378;2022-08-11T10:22:33;28.17;40.34
70234;DHT22;57622;42.630;23.378;2022-08-11T10:25:18;28.24;40.23
70234;DHT22;57622;42.630;23.378;2022-08-11T10:28:03;28.64;40.95
70234;DHT22;57622;42.630;23.378;2022-08-11T10:30:31;29.09;40.08
70234;DHT22;57622;42.630;23.378;2022-08-11T10:33:16;29.16;40.38
70234;DHT22;57622;42.630;23.378;2022-08-11T10:36:01;28.75;40.44
70234;DHT22;57622;42.630;23.378;2022-08-11T10:38:29;28.72;42.28
70234;DHT22;57622;42.630;23.378;2022-08-11T10:40:54;28.96;42.31
70234;DHT22;57622;42.630;23.378;2022-08-11T10:43:39;29.34;41.11
70234;DHT22;57622;42.630;23.378;2022-08-11T10:46:09;29.60;40.33
70234;DHT22;57622;42.630;23.378;2022-08-11T10:48:53;29.67;39.83
70234;DHT22;57622;42.630;23.378;2022-08-11T10:51:20;29.95;38.78
70234;DHT22;57622;42.630;23.378;2022-08-11T10:53:48;29.84;37.88
70234;DHT22;57622;42.630;23.378;2022-08-11T10:56:35;29.70;39.57
70234;DHT22;57622;42.630;23.378;2022-08-11T10:59:20;29.85;39.20
70234;DHT22;57622;42.630;23.378;2022-08-11T11:01:47;29.92;39.05
70234;DHT22;57622;42.630;23.378;2022-08-11T11:04:16;30.09;38.53
70234;DHT22;57622;42.630;23.378;2022-08-11T11:09:31;29.88;39.11
70234;DHT22;57622;42.630;23.378;2022-08-11T11:12:19;29.97;38.12
70234;DHT22;57622;42.630;23.378;2022-08-11T11:15:07;30.04;38.08
70234;DHT22;57622;42.630;23.378;2022-08-11T11:18:24;30.16;36.75
70234;DHT22;57622;42.630;23.378;2022-08-11T11:27:04;30.25;37.33
70234;DHT22;57622;42.630;23.378;2022-08-11T11:29:53;30.28;36.94
70234;DHT22;57622;42.630;23.378;2022-08-11T11:32:30;30.11;35.90
70234;DHT22;57622;42.630;23.378;2022-08-11T11:35:21;30.22;35.55
70234;DHT22;57622;42.630;23.378;2022-08-11T11:37:51;30.36;36.34
70234;DHT22;57622;42.630;23.378;2022-08-11T11:40:18;30.44;36.95
70234;DHT22;57622;42.630;23.378;2022-08-11T11:42:47;30.57;36.70
70234;DHT22;57622;42.630;23.378;2022-08-11T11:45:18;30.60;36.10
70234;DHT22;57622;42.630;23.378;2022-08-11T11:47:44;30.51;35.60
70234;DHT22;57622;42.630;23.378;2022-08-11T11:50:12;30.14;36.61
70234;DHT22;57622;42.630;23.378;2022-08-11T11:52:38;29.91;35.85
70234;DHT22;57622;42.630;23.378;2022-08-11T11:55:04;29.53;38.94
70234;DHT22;57622;42.630;23.378;2022-08-11T11:57:32;29.42;40.51
70234;DHT22;57622;42.630;23.378;2022-08-11T12:00:17;28.96;41.43
70234;DHT22;57622;42.630;23.378;2022-08-11T12:03:05;28.95;41.71
70234;DHT22;57622;42.630;23.378;2022-08-11T12:05:33;28.96;41.55
70234;DHT22;57622;42.630;23.378;2022-08-11T12:08:00;28.74;42.71
70234;DHT22;57622;42.630;23.378;2022-08-11T12:10:44;28.57;42.63
70234;DHT22;57622;42.630;23.378;2022-08-11T12:13:11;28.20;42.17
70234;DHT22;57622;42.630;23.378;2022-08-11T12:15:57;27.99;42.77
70234;DHT22;57622;42.630;23.378;2022-08-11T12:18:30;28.21;42.82
70234;DHT22;57622;42.630;23.378;2022-08-11T12:20:58;28.61;41.91
70234;DHT22;57622;42.630;23.378;2022-08-11T12:23:24;28.67;41.30
70234;DHT22;57622;42.630;23.378;2022-08-11T12:26:17;28.43;41.50
70234;DHT22;57622;42.630;23.378;2022-08-11T12:29:04;28.37;42.01
70234;DHT22;57622;42.630;23.378;2022-08-11T12:31:34;28.13;42.11
70234;DHT22;57622;42.630;23.378;2022-08-11T12:34:19;27.90;42.41
70234;DHT22;57622;42.630;23.378;2022-08-11T12:36:53;27.90;42.84
70234;DHT22;57622;42.630;23.378;2022-08-11T12:39:22;27.86;42.82
70234;DHT22;57622;42.630;23.378;2022-08-11T12:42:09;27.76;43.37
70234;DHT22;57622;42.630;23.378;2022-08-11T12:44:56;27.82;43.51
70234;DHT22;57622;42.630;23.378;2022-08-11T12:47:45;27.73;44.41
70234;DHT22;57622;42.630;23.378;2022-08-11T12:50:30;27.67;44.64
70234;DHT22;57622;42.630;23.378;2022-08-11T12:53:37;27.48;44.83
70234;DHT22;57622;42.630;23.378;2022-08-11T12:56:05;27.43;44.91
70234;DHT22;57622;42.630;23.378;2022-08-11T12:58:51;27.25;44.95
70234;DHT22;57622;42.630;23.378;2022-08-11T13:01:18;27.30;45.26
70234;DHT22;57622;42.630;23.378;2022-08-11T13:04:03;27.52;44.86
70234;DHT22;57622;42.630;23.378;2022-08-11T13:06:49;27.69;45.06
70234;DHT22;57622;42.630;23.378;2022-08-11T13:09:15;27.62;45.06
70234;DHT22;57622;42.630;23.378;2022-08-11T13:11:42;27.58;45.52
70234;DHT22;57622;42.630;23.378;2022-08-11T13:14:29;27.25;46.50
70234;DHT22;57622;42.630;23.378;2022-08-11T13:16:57;27.12;47.40
70234;DHT22;57622;42.630;23.378;2022-08-11T13:19:43;26.91;46.79
70234;DHT22;57622;42.630;23.378;2022-08-11T13:22:10;26.91;47.25
70234;DHT22;57622;42.630;23.378;2022-08-11T13:24:38;26.87;47.43
70234;DHT22;57622;42.630;23.378;2022-08-11T13:27:04;26.76;47.65
70234;DHT22;57622;42.630;23.378;2022-08-11T13:29:30;26.64;47.59
70234;DHT22;57622;42.630;23.378;2022-08-11T13:31:56;26.56;47.35
70234;DHT22;57622;42.630;23.378;2022-08-11T13:34:25;26.52;47.56
70234;DHT22;57622;42.630;23.378;2022-08-11T13:36:53;26.49;47.29
70234;DHT22;57622;42.630;23.378;2022-08-11T13:39:21;26.71;46.94
70234;DHT22;57622;42.630;23.378;2022-08-11T13:41:48;26.86;47.77
70234;DHT22;57622;42.630;23.378;2022-08-11T13:44:15;26.97;46.33
70234;DHT22;57622;42.630;23.378;2022-08-11T13:46:42;27.12;45.92
70234;DHT22;57622;42.630;23.378;2022-08-11T13:49:08;27.14;46.39
70234;DHT22;57622;42.630;23.378;2022-08-11T13:51:38;27.28;45.45
70234;DHT22;57622;42.630;23.378;2022-08-11T13:54:07;27.35;45.05
70234;DHT22;57622;42.630;23.378;2022-08-11T13:56:41;27.38;44.91
70234;DHT22;57622;42.630;23.378;2022-08-11T13:59:09;27.43;43.91
70234;DHT22;57622;42.630;23.378;2022-08-11T14:01:38;27.28;44.63
70234;DHT22;57622;42.630;23.378;2022-08-11T14:04:10;27.49;44.42
70234;DHT22;57622;42.630;23.378;2022-08-11T14:06:50;27.55;43.83
70234;DHT22;57622;42.630;23.378;2022-08-11T14:09:24;27.48;43.90
70234;DHT22;57622;42.630;23.378;2022-08-11T14:11:52;27.48;43.53
70234;DHT22;57622;42.630;23.378;2022-08-11T14:14:39;27.60;42.85
70234;DHT22;57622;42.630;23.378;2022-08-11T14:17:06;27.58;41.93
70234;DHT22;57622;42.630;23.378;2022-08-11T14:19:35;27.46;41.57
70234;DHT22;57622;42.630;23.378;2022-08-11T14:22:04;27.46;41.40
70234;DHT22;57622;42.630;23.378;2022-08-11T14:24:37;27.20;41.47
70234;DHT22;57622;42.630;23.378;2022-08-11T14:27:05;27.18;41.97
70234;DHT22;57622;42.630;23.378;2022-08-11T14:29:32;27.35;42.28
70234;DHT22;57622;42.630;23.378;2022-08-11T14:32:05;27.41;41.76
70234;DHT22;57622;42.630;23.378;2022-08-11T14:34:31;27.48;41.86
70234;DHT22;57622;42.630;23.378;2022-08-11T14:37:11;27.49;41.31
70234;DHT22;57622;42.630;23.378;2022-08-11T14:39:39;27.37;41.65
70234;DHT22;57622;42.630;23.378;2022-08-11T14:42:06;27.28;41.46
70234;DHT22;57622;42.630;23.378;2022-08-11T14:44:55;27.30;41.35
70234;DHT22;57622;42.630;23.378;2022-08-11T14:47:41;27.35;41.45
70234;DHT22;57622;42.630;23.378;2022-08-11T14:50:11;27.37;41.16
70234;DHT22;57622;42.630;23.378;2022-08-11T14:52:47;27.43;40.96
70234;DHT22;57622;42.630;23.378;2022-08-11T14:55:13;27.45;41.21
70234;DHT22;57622;42.630;23.378;2022-08-11T14:57:58;27.38;41.21
70234;DHT22;57622;42.630;23.378;2022-08-11T15:00:25;27.39;41.16
70234;DHT22;57622;42.630;23.378;2022-08-11T15:02:50;27.45;41.39
70234;DHT22;57622;42.630;23.378;2022-08-11T15:08:12;27.25;42.23
70234;DHT22;57622;42.630;23.378;2022-08-11T15:10:39;27.21;42.54
70234;DHT22;57622;42.630;23.378;2022-08-11T15:13:05;27.27;42.76
70234;DHT22;57622;42.630;23.378;2022-08-11T15:15:32;27.25;43.17
70234;DHT22;57622;42.630;23.378;2022-08-11T15:18:17;27.12;42.66
70234;DHT22;57622;42.630;23.378;2022-08-11T15:20:43;27.16;42.71
70234;DHT22;57622;42.630;23.378;2022-08-11T15:23:28;27.37;43.00
70234;DHT22;57622;42.630;23.378;2022-08-11T15:26:16;27.39;42.95
70234;DHT22;57622;42.630;23.378;2022-08-11T15:28:47;27.37;42.95
70234;DHT22;57622;42.630;23.378;2022-08-11T15:31:32;27.38;43.40
70234;DHT22;57622;42.630;23.378;2022-08-11T15:34:34;27.20;43.76
70234;DHT22;57622;42.630;23.378;2022-08-11T15:37:19;26.93;43.89
70234;DHT22;57622;42.630;23.378;2022-08-11T15:40:00;26.91;44.05
70234;DHT22;57622;42.630;23.378;2022-08-11T15:42:54;26.93;44.09
70234;DHT22;57622;42.630;23.378;2022-08-11T15:45:40;26.80;44.30
70234;DHT22;57622;42.630;23.378;2022-08-11T15:48:18;26.70;44.34
70234;DHT22;57622;42.630;23.378;2022-08-11T15:50:49;26.61;44.49
70234;DHT22;57622;42.630;23.378;2022-08-11T15:53:31;26.57;44.61
70234;DHT22;57622;42.630;23.378;2022-08-11T15:55:58;26.63;44.73
70234;DHT22;57622;42.630;23.378;2022-08-11T15:58:29;26.54;44.72
70234;DHT22;57622;42.630;23.378;2022-08-11T16:01:18;26.52;44.62
70234;DHT22;57622;42.630;23.378;2022-08-11T16:04:06;26.53;44.74
70234;DHT22;57622;42.630;23.378;2022-08-11T16:09:14;26.29;44.74
70234;DHT22;57622;42.630;23.378;2022-08-11T16:11:42;26.32;44.68
70234;DHT22;57622;42.630;23.378;2022-08-11T16:14:10;26.25;44.65
70234;DHT22;57622;42.630;23.378;2022-08-11T16:16:55;26.16;45.11
70234;DHT22;57622;42.630;23.378;2022-08-11T16:19:24;26.16;45.17
70234;DHT22;57622;42.630;23.378;2022-08-11T16:21:52;26.05;45.64
70234;DHT22;57622;42.630;23.378;2022-08-11T16:24:18;25.85;45.77
70234;DHT22;57622;42.630;23.378;2022-08-11T16:26:45;25.63;46.04
70234;DHT22;57622;42.630;23.378;2022-08-11T16:29:11;25.53;45.81
70234;DHT22;57622;42.630;23.378;2022-08-11T16:31:39;25.47;45.95
70234;DHT22;57622;42.630;23.378;2022-08-11T16:34:06;25.44;45.62
70234;DHT22;57622;42.630;23.378;2022-08-11T16:36:53;25.48;45.89
70234;DHT22;57622;42.630;23.378;2022-08-11T16:39:38;25.55;45.87
70234;DHT22;57622;42.630;23.378;2022-08-11T16:42:05;25.55;45.65
70234;DHT22;57622;42.630;23.378;2022-08-11T16:44:51;25.50;45.71
70234;DHT22;57622;42.630;23.378;2022-08-11T16:47:35;25.48;45.91
70234;DHT22;57622;42.630;23.378;2022-08-11T16:50:02;25.44;45.70
70234;DHT22;57622;42.630;23.378;2022-08-11T16:52:27;25.38;46.12
70234;DHT22;57622;42.630;23.378;2022-08-11T16:54:53;25.31;46.31
70234;DHT22;57622;42.630;23.378;2022-08-11T16:57:24;25.34;46.08
70234;DHT22;57622;42.630;23.378;2022-08-11T17:00:10;25.22;46.22
70234;DHT22;57622;42.630;23.378;2022-08-11T17:02:41;25.28;46.38
70234;DHT22;57622;42.630;23.378;2022-08-11T17:05:26;25.31;46.47
70234;DHT22;57622;42.630;23.378;2022-08-11T17:08:13;25.20;46.26
70234;DHT22;57622;42.630;23.378;2022-08-11T17:11:02;25.12;46.42
70234;DHT22;57622;42.630;23.378;2022-08-11T17:13:49;24.90;46.66
70234;DHT22;57622;42.630;23.378;2022-08-11T17:16:21;24.97;46.73
70234;DHT22;57622;42.630;23.378;2022-08-11T17:18:59;25.02;46.87
70234;DHT22;57622;42.630;23.378;2022-08-11T17:21:29;24.99;46.51
70234;DHT22;57622;42.630;23.378;2022-08-11T17:24:05;25.07;46.87
70234;DHT22;57622;42.630;23.378;2022-08-11T17:26:40;25.09;46.55
70234;DHT22;57622;42.630;23.378;2022-08-11T17:29:31;25.13;46.08
70234;DHT22;57622;42.630;23.378;2022-08-11T17:32:00;25.13;46.25
70234;DHT22;57622;42.630;23.378;2022-08-11T17:34:46;25.12;46.20
70234;DHT22;57622;42.630;23.378;2022-08-11T17:37:32;24.90;46.65
70234;DHT22;57622;42.630;23.378;2022-08-11T17:40:02;24.92;46.63
70234;DHT22;57622;42.630;23.378;2022-08-11T17:42:30;24.82;46.97
70234;DHT22;57622;42.630;23.378;2022-08-11T17:45:16;24.85;47.98
70234;DHT22;57622;42.630;23.378;2022-08-11T17:48:01;24.49;49.81
70234;DHT22;57622;42.630;23.378;2022-08-11T17:50:47;24.24;50.95
70234;DHT22;57622;42.630;23.378;2022-08-11T17:53:14;23.96;51.49
70234;DHT22;57622;42.630;23.378;2022-08-11T17:56:00;23.73;52.41
70234;DHT22;57622;42.630;23.378;2022-08-11T17:58:45;23.63;52.96
70234;DHT22;57622;42.630;23.378;2022-08-11T18:01:31;23.81;53.88
70234;DHT22;57622;42.630;23.378;2022-08-11T18:04:02;23.96;52.04
70234;DHT22;57622;42.630;23.378;2022-08-11T18:06:30;23.65;52.84
70234;DHT22;57622;42.630;23.378;2022-08-11T18:08:57;23.25;54.26
70234;DHT22;57622;42.630;23.378;2022-08-11T18:11:45;23.19;54.18
70234;DHT22;57622;42.630;23.378;2022-08-11T18:14:31;23.05;54.72
70234;DHT22;57622;42.630;23.378;2022-08-11T18:17:16;23.11;54.23
70234;DHT22;57622;42.630;23.378;2022-08-11T18:20:00;23.15;54.05
70234;DHT22;57622;42.630;23.378;2022-08-11T18:22:46;22.97;54.45
70234;DHT22;57622;42.630;23.378;2022-08-11T18:25:33;23.11;53.90
70234;DHT22;57622;42.630;23.378;2022-08-11T18:28:25;22.98;54.29
70234;DHT22;57622;42.630;23.378;2022-08-11T18:31:12;23.19;53.42
70234;DHT22;57622;42.630;23.378;2022-08-11T18:34:00;23.07;53.61
70234;DHT22;57622;42.630;23.378;2022-08-11T18:36:53;23.15;53.44
70234;DHT22;57622;42.630;23.378;2022-08-11T18:39:43;23.07;53.38
70234;DHT22;57622;42.630;23.378;2022-08-11T18:42:30;23.11;53.46
70234;DHT22;57622;42.630;23.378;2022-08-11T18:45:17;23.05;54.26
70234;DHT22;57622;42.630;23.378;2022-08-11T18:48:06;22.94;54.91
70234;DHT22;57622;42.630;23.378;2022-08-11T18:50:54;22.88;54.97
70234;DHT22;57622;42.630;23.378;2022-08-11T18:53:41;23.04;54.77
70234;DHT22;57622;42.630;23.378;2022-08-11T18:56:28;23.05;54.16
70234;DHT22;57622;42.630;23.378;2022-08-11T18:59:16;23.19;54.15
70234;DHT22;57622;42.630;23.378;2022-08-11T19:02:03;23.26;54.05
70234;DHT22;57622;42.630;23.378;2022-08-11T19:04:48;23.39;53.73
70234;DHT22;57622;42.630;23.378;2022-08-11T19:07:33;23.31;54.23
70234;DHT22;57622;42.630;23.378;2022-08-11T19:10:18;23.39;54.59
70234;DHT22;57622;42.630;23.378;2022-08-11T19:13:06;23.31;54.73
70234;DHT22;57622;42.630;23.378;2022-08-11T19:15:52;23.18;55.12
70234;DHT22;57622;42.630;23.378;2022-08-11T19:18:37;23.21;55.01
70234;DHT22;57622;42.630;23.378;2022-08-11T19:21:22;23.28;55.30
70234;DHT22;57622;42.630;23.378;2022-08-11T19:24:07;23.43;54.85
70234;DHT22;57622;42.630;23.378;2022-08-11T19:26:52;23.46;54.91
70234;DHT22;57622;42.630;23.378;2022-08-11T19:29:37;23.49;55.69
70234;DHT22;57622;42.630;23.378;2022-08-11T19:32:22;23.43;55.66
70234;DHT22;57622;42.630;23.378;2022-08-11T19:35:07;23.32;56.59
70234;DHT22;57622;42.630;23.378;2022-08-11T19:37:52;23.16;57.51